Christmas Valley, OR (97641)

10:19 AM PST on February 11, 2016 (GMT -0800)
CHC | | Change Station
CLOSE
Current Station
Personal Weather Station
Location: Christmas Valley, OR
Elevation: 4318 ft
Nearby Weather Stations

Elev 4318 ft 43.25 °N, 120.69 °W | Updated 13 minutes ago

Overcast
Overcast
40.5 °F
Feels Like 37 °F
N
4.7
Wind Variable Wind from NNE

Today
High -- | Low -- °F
--% Chance of Precip.
Yesterday
High -- | Low -- °F
Precip. -- in
Pressure 30.24 in
Visibility 9.0 miles
Clouds Few 3500 ft
Scattered Clouds 4700 ft
Scattered Clouds 5500 ft
Windchill 37 °F
Dew Point 32 °F
Humidity 72%
Rainfall 0.00 in
Snow Depth Not available.
7:06 AM 5:27 PM
Waxing Crescent, 13% visible
METAR KBDN 111815Z AUTO 00000KT 9SM FEW035 SCT047 SCT055 08/02 A3024 RMK AO2
Pressure 30.24 in
Visibility 9.0 miles
Clouds Few 3500 ft
Scattered Clouds 4700 ft
Scattered Clouds 5500 ft
Windchill 37 °F
Dew Point 32 °F
Humidity 72%
Rainfall 0.00 in
Snow Depth Not available.
7:06 AM 5:27 PM
Waxing Crescent, 13% visible
METAR KBDN 111815Z AUTO 00000KT 9SM FEW035 SCT047 SCT055 08/02 A3024 RMK AO2

10-Day Weather Forecast

Almanac

Astronomy

Feb. 11, 2016 Rise Set
Actual Time
Civil Twilight
Nautical Twilight
Astronomical Twilight
Moon
Length of Visible Light
Length of Day
Tomorrow will be .
, % of the Moon is Illuminated

Today's Extremes

State Highs State Lows

Community

WunderPhotos

Upload Photos

1,892,122 photos uploaded!

WunderBlog® & News

Nearby

Air Quality

  Air Quality AQ Index Pollutant
Not available.

Snow Depth

Station Depth Elevation

Earthquake Activity

City Distance Mag. Time & Date
Minimum magnitude displayed is 2.5.

Coastal Water Temperatures

Place Temperature

Stations

Nearby Weather Stations

Station Location Temp. Windchill Dew Point Humidity Wind Precip. Elev Updated Type
                   

Watches & Warnings

There are currently no watches in effect.